Time;durP1;ratioP1;P1;durP2;ratioP2;P2;SDS_P1;SDS_P2;PMS_P1;PMS_P2;Temp;Humidity;BMP_temperature;BMP_pressure;BME280_temperature;BME280_humidity;BME280_pressure;Samples;Min_cycle;Max_cycle;Signal;HPM_P1;HPM_P2
2021/03/27 00:01:31;;;;;;;7.30;6.30;;;12.50;95.30;;;;;;5120892;28;20528;-81
2021/03/27 00:04:12;;;;;;;9.97;7.07;;;12.40;95.60;;;;;;5123280;28;20263;-82
2021/03/27 00:06:54;;;;;;;8.20;6.40;;;12.40;96.00;;;;;;5133888;28;20487;-82
2021/03/27 00:09:32;;;;;;;8.50;6.30;;;12.30;96.60;;;;;;5102590;28;20410;-82
2021/03/27 00:12:07;;;;;;;10.37;8.23;;;12.20;97.20;;;;;;5109478;28;20520;-80
2021/03/27 00:14:48;;;;;;;12.80;8.40;;;12.20;97.50;;;;;;5120622;28;20452;-81
2021/03/27 00:17:19;;;;;;;9.33;8.20;;;12.20;98.80;;;;;;5120456;28;21045;-82
2021/03/27 00:19:51;;;;;;;8.60;7.80;;;12.10;99.90;;;;;;5120056;28;20421;-82
2021/03/27 00:22:39;;;;;;;9.20;8.20;;;11.80;99.90;;;;;;5121179;28;21078;-81
2021/03/27 00:25:24;;;;;;;9.03;7.50;;;11.70;99.90;;;;;;5101930;28;20454;-80
2021/03/27 00:28:02;;;;;;;11.00;8.07;;;11.60;99.90;;;;;;5120000;28;20417;-82
2021/03/27 00:30:39;;;;;;;14.30;9.73;;;11.60;99.90;;;;;;5104705;28;20433;-81
2021/03/27 00:33:06;;;;;;;9.30;8.03;;;11.30;99.90;;;;;;5106073;28;20433;-81
2021/03/27 00:35:37;;;;;;;7.63;6.67;;;11.20;99.90;;;;;;5118627;28;20417;-82
2021/03/27 00:38:07;;;;;;;6.07;5.50;;;11.00;99.90;;;;;;5120622;28;20429;-80
2021/03/27 00:40:39;;;;;;;5.23;4.73;;;10.90;99.90;;;;;;5079375;28;20433;-82
2021/03/27 00:43:13;;;;;;;6.27;5.47;;;10.80;99.90;;;;;;5096539;28;20512;-83
2021/03/27 00:46:01;;;;;;;6.43;5.80;;;10.80;99.90;;;;;;5119773;28;20957;-83
2021/03/27 00:48:29;;;;;;;7.80;6.83;;;10.40;99.90;;;;;;5110743;28;20421;-83
2021/03/27 00:51:02;;;;;;;6.67;6.07;;;10.50;99.90;;;;;;5120218;28;20476;-81
2021/03/27 00:53:31;;;;;;;7.17;6.30;;;10.50;99.90;;;;;;5103441;28;20429;-81
2021/03/27 00:56:28;;;;;;;8.20;7.00;;;10.60;99.90;;;;;;5117080;28;20433;-80
2021/03/27 00:59:23;;;;;;;7.83;6.37;;;10.30;99.90;;;;;;5119940;28;20497;-82
2021/03/27 01:01:53;;;;;;;7.83;6.07;;;10.30;99.90;;;;;;5123587;28;20441;-81
2021/03/27 01:04:21;;;;;;;5.27;4.77;;;10.10;99.90;;;;;;5125228;28;20780;-80
2021/03/27 01:06:59;;;;;;;5.57;4.70;;;10.00;99.90;;;;;;5106313;28;20806;-80
2021/03/27 01:09:30;;;;;;;5.63;5.00;;;10.00;99.90;;;;;;5124897;28;20624;-81
2021/03/27 01:12:08;;;;;;;5.30;4.73;;;9.90;99.90;;;;;;5091431;27;20433;-81
2021/03/27 01:15:05;;;;;;;5.23;4.50;;;9.60;99.90;;;;;;5124768;28;20424;-81
2021/03/27 01:17:33;;;;;;;4.33;3.63;;;9.40;99.90;;;;;;5100200;28;20430;-83
2021/03/27 01:20:22;;;;;;;6.60;3.67;;;9.30;99.90;;;;;;5106115;28;20441;-80
2021/03/27 01:22:50;;;;;;;4.17;3.70;;;9.30;99.90;;;;;;5125415;28;20440;-81
2021/03/27 01:25:39;;;;;;;4.07;3.67;;;9.20;99.90;;;;;;5121945;28;20446;-82
2021/03/27 01:28:45;;;;;;;5.17;4.23;;;9.20;99.90;;;;;;5128839;27;20424;-82
2021/03/27 01:31:14;;;;;;;5.27;4.57;;;9.10;99.90;;;;;;5122424;28;20922;-82
2021/03/27 01:34:18;;;;;;;6.57;5.83;;;8.90;99.90;;;;;;5105410;28;20410;-81
2021/03/27 01:36:46;;;;;;;9.30;7.47;;;8.90;99.90;;;;;;5106113;28;20428;-80
2021/03/27 01:39:46;;;;;;;11.20;8.73;;;8.90;99.90;;;;;;5102710;28;20410;-80
2021/03/27 01:42:41;;;;;;;12.30;10.43;;;8.80;99.90;;;;;;5101861;28;20446;-80
2021/03/27 01:45:44;;;;;;;12.37;10.37;;;8.70;99.90;;;;;;5128200;27;20484;-80
2021/03/27 01:48:24;;;;;;;14.00;11.73;;;8.30;99.90;;;;;;5122443;28;20406;-81
2021/03/27 01:50:59;;;;;;;13.50;10.60;;;8.20;99.90;;;;;;5122474;28;20428;-83
2021/03/27 01:53:38;;;;;;;11.30;10.20;;;8.30;99.90;;;;;;5124646;28;20416;-82
2021/03/27 01:56:23;;;;;;;12.80;10.37;;;8.40;99.90;;;;;;5126311;27;20788;-84
2021/03/27 01:59:00;;;;;;;11.40;8.63;;;8.20;99.90;;;;;;5112953;28;20976;-82
2021/03/27 02:01:45;;;;;;;11.00;8.30;;;8.10;99.90;;;;;;5124205;28;20489;-83
2021/03/27 02:04:17;;;;;;;9.93;7.63;;;8.20;99.90;;;;;;5123454;28;20405;-83
2021/03/27 02:07:03;;;;;;;10.13;8.40;;;8.50;99.90;;;;;;5122949;28;20502;-82
2021/03/27 02:10:07;;;;;;;9.20;7.33;;;8.20;99.90;;;;;;5105302;28;20409;-81
2021/03/27 02:13:01;;;;;;;7.07;5.77;;;8.10;99.90;;;;;;5120236;27;20448;-83
2021/03/27 02:15:33;;;;;;;6.57;5.17;;;8.10;99.90;;;;;;5119445;28;20414;-83
2021/03/27 02:18:03;;;;;;;6.13;4.43;;;8.10;99.90;;;;;;5124552;28;20428;-82
2021/03/27 02:20:53;;;;;;;4.40;3.93;;;7.90;99.90;;;;;;5122060;28;20497;-84
2021/03/27 02:23:31;;;;;;;5.87;4.30;;;7.80;99.90;;;;;;5109942;28;20406;-84
2021/03/27 02:26:34;;;;;;;4.10;3.43;;;7.90;99.90;;;;;;5123682;28;20536;-84
2021/03/27 02:29:33;;;;;;;6.83;3.93;;;7.70;99.90;;;;;;5106989;28;20433;-82
2021/03/27 02:32:09;;;;;;;3.83;3.43;;;7.80;99.90;;;;;;5124073;28;21033;-81
2021/03/27 02:34:40;;;;;;;6.00;3.77;;;7.60;99.90;;;;;;5111385;28;20412;-81
2021/03/27 02:37:16;;;;;;;4.40;3.20;;;7.50;99.90;;;;;;5107003;28;20446;-81
2021/03/27 02:40:22;;;;;;;5.30;3.33;;;7.40;99.90;;;;;;5123405;28;20450;-81
2021/03/27 02:42:51;;;;;;;4.80;2.93;;;7.70;99.90;;;;;;5080966;28;20456;-83
2021/03/27 02:45:28;;;;;;;6.20;3.23;;;7.50;99.90;;;;;;5104163;28;20510;-82
2021/03/27 02:48:28;;;;;;;4.43;3.23;;;7.40;99.90;;;;;;5112106;28;20417;-83
2021/03/27 02:51:20;;;;;;;6.40;3.10;;;7.40;99.90;;;;;;5112731;28;20439;-82
2021/03/27 02:54:12;;;;;;;6.23;3.27;;;7.40;99.90;;;;;;5094377;28;20417;-83
2021/03/27 02:56:54;;;;;;;6.67;2.73;;;7.10;99.90;;;;;;5103916;27;20439;-81
2021/03/27 02:59:39;;;;;;;4.23;3.17;;;7.20;99.90;;;;;;5136308;27;20408;-82
2021/03/27 03:02:19;;;;;;;4.30;3.00;;;7.20;99.90;;;;;;5123839;28;20437;-82
2021/03/27 03:05:13;;;;;;;5.20;3.00;;;7.30;99.90;;;;;;5121125;28;20420;-81
2021/03/27 03:08:13;;;;;;;4.80;2.33;;;7.10;99.90;;;;;;5113994;28;20421;-83
2021/03/27 03:11:13;;;;;;;2.93;2.00;;;7.20;99.90;;;;;;5112666;28;21310;-82
2021/03/27 03:14:17;;;;;;;2.90;2.27;;;7.40;99.90;;;;;;5119623;27;20433;-83
2021/03/27 03:17:00;;;;;;;5.30;3.43;;;7.20;99.90;;;;;;5105216;28;20429;-84
2021/03/27 03:20:02;;;;;;;3.37;2.40;;;7.30;99.90;;;;;;5105561;28;20477;-82
2021/03/27 03:22:38;;;;;;;2.93;2.43;;;7.10;99.90;;;;;;5080014;28;20456;-83
2021/03/27 03:25:21;;;;;;;7.07;4.23;;;7.10;99.90;;;;;;5121207;27;20475;-83
2021/03/27 03:27:54;;;;;;;5.37;3.13;;;7.10;99.90;;;;;;5119710;28;20460;-83
2021/03/27 03:30:40;;;;;;;5.10;3.00;;;6.90;99.90;;;;;;5129834;27;20465;-83
2021/03/27 03:33:24;;;;;;;4.07;2.90;;;7.10;99.90;;;;;;5105772;28;20409;-84
2021/03/27 03:36:19;;;;;;;4.47;3.30;;;6.90;99.90;;;;;;5124031;28;20421;-81
2021/03/27 03:39:06;;;;;;;5.13;3.00;;;7.00;99.90;;;;;;5121815;28;20409;-83
2021/03/27 03:41:55;;;;;;;7.53;3.60;;;7.30;99.90;;;;;;5089642;28;20458;-84
2021/03/27 03:44:30;;;;;;;5.43;3.00;;;7.30;99.90;;;;;;5115371;28;20428;-82
2021/03/27 03:47:08;;;;;;;4.80;3.60;;;7.30;99.90;;;;;;5115035;28;20535;-83
2021/03/27 03:50:04;;;;;;;7.77;3.10;;;7.10;99.90;;;;;;5122309;28;20417;-81
2021/03/27 03:53:03;;;;;;;6.00;3.60;;;7.00;99.90;;;;;;5102404;28;20421;-81
2021/03/27 03:55:57;;;;;;;6.27;3.40;;;6.80;99.90;;;;;;5098490;28;20428;-81
2021/03/27 03:58:43;;;;;;;4.97;2.90;;;7.20;99.90;;;;;;5115233;28;20468;-83
2021/03/27 04:01:26;;;;;;;5.77;3.30;;;7.00;99.90;;;;;;5101224;28;20896;-83
2021/03/27 04:04:21;;;;;;;4.83;3.07;;;6.80;99.90;;;;;;5109906;28;20413;-82
2021/03/27 04:06:52;;;;;;;8.53;3.97;;;6.80;99.90;;;;;;5122005;28;20484;-83
2021/03/27 04:09:35;;;;;;;6.13;4.63;;;6.90;99.90;;;;;;5122765;28;20952;-81
2021/03/27 04:12:08;;;;;;;7.53;3.80;;;6.60;99.90;;;;;;5103879;28;20427;-83
2021/03/27 04:14:46;;;;;;;4.47;3.60;;;6.60;99.90;;;;;;5119594;28;20435;-81
2021/03/27 04:17:38;;;;;;;8.10;3.90;;;6.50;99.90;;;;;;5114218;28;20461;-82
2021/03/27 04:20:25;;;;;;;7.00;4.13;;;6.40;99.90;;;;;;5125730;28;20516;-83
2021/03/27 04:23:18;;;;;;;7.03;4.10;;;6.50;99.90;;;;;;5122936;28;20409;-81
2021/03/27 04:26:22;;;;;;;8.07;4.17;;;6.60;99.90;;;;;;5121868;28;20472;-83
2021/03/27 04:29:22;;;;;;;9.10;4.03;;;6.60;99.90;;;;;;5116915;28;20434;-81
2021/03/27 04:32:05;;;;;;;5.50;4.50;;;6.80;99.90;;;;;;5128847;28;20545;-80
2021/03/27 04:34:46;;;;;;;6.30;4.47;;;6.70;99.90;;;;;;5121624;28;20396;-81
2021/03/27 04:37:27;;;;;;;8.27;4.20;;;6.60;99.90;;;;;;5127883;28;20409;-83
2021/03/27 04:40:08;;;;;;;8.83;4.47;;;6.70;99.90;;;;;;5125828;28;20498;-82
2021/03/27 04:43:02;;;;;;;10.97;5.20;;;6.80;99.90;;;;;;5105469;28;20544;-84
2021/03/27 04:45:37;;;;;;;7.70;4.57;;;6.70;99.90;;;;;;5126390;27;20458;-83
2021/03/27 04:48:17;;;;;;;7.93;4.90;;;7.00;99.90;;;;;;5117636;28;20647;-82
2021/03/27 04:51:10;;;;;;;5.60;4.30;;;6.60;99.90;;;;;;5124318;28;20465;-81
2021/03/27 04:53:42;;;;;;;10.60;4.27;;;6.70;99.90;;;;;;5107723;28;21788;-83
2021/03/27 04:56:32;;;;;;;7.73;4.57;;;6.60;99.90;;;;;;5126987;27;20425;-83
2021/03/27 04:59:10;;;;;;;7.17;4.33;;;6.50;99.90;;;;;;5110580;28;20740;-82
2021/03/27 05:01:51;;;;;;;6.23;4.20;;;6.60;99.90;;;;;;5133294;27;20467;-83
2021/03/27 05:04:27;;;;;;;7.43;4.33;;;6.50;99.90;;;;;;5115672;28;20462;-83
2021/03/27 05:07:24;;;;;;;6.17;4.30;;;6.70;99.90;;;;;;5125070;28;20449;-81
2021/03/27 05:09:59;;;;;;;8.33;4.90;;;6.50;99.90;;;;;;5124990;28;20420;-82
2021/03/27 05:13:04;;;;;;;6.20;4.20;;;6.70;99.90;;;;;;5107090;28;20548;-83
2021/03/27 05:15:45;;;;;;;6.83;4.30;;;6.80;99.90;;;;;;5104849;28;20421;-81
2021/03/27 05:18:22;;;;;;;11.80;4.57;;;6.70;99.90;;;;;;5124506;28;20405;-81
2021/03/27 05:20:54;;;;;;;7.40;4.00;;;6.60;99.90;;;;;;5126804;28;20429;-83
2021/03/27 05:23:44;;;;;;;5.50;3.10;;;6.70;99.90;;;;;;5128245;27;20410;-83
2021/03/27 05:26:27;;;;;;;9.50;3.43;;;6.80;99.90;;;;;;5125947;28;20453;-83
2021/03/27 05:29:16;;;;;;;13.83;4.30;;;6.70;99.90;;;;;;5120929;28;20445;-83
2021/03/27 05:32:14;;;;;;;24.50;5.03;;;6.80;99.90;;;;;;5131742;27;20444;-81
2021/03/27 05:34:47;;;;;;;6.00;3.40;;;6.80;99.90;;;;;;5113182;28;20413;-81
2021/03/27 05:37:34;;;;;;;9.90;3.67;;;6.90;99.90;;;;;;5090580;28;21139;-81
2021/03/27 05:40:18;;;;;;;9.23;3.70;;;6.80;99.90;;;;;;5124686;28;20417;-83
2021/03/27 05:42:55;;;;;;;9.90;3.40;;;7.00;99.90;;;;;;5122194;28;20463;-81
2021/03/27 05:45:40;;;;;;;6.07;3.33;;;7.00;99.90;;;;;;5125685;27;20453;-81
2021/03/27 05:48:18;;;;;;;11.57;3.33;;;6.90;99.90;;;;;;5123943;27;20414;-83
2021/03/27 05:50:44;;;;;;;8.00;3.53;;;6.90;99.90;;;;;;5123630;28;20497;-82
2021/03/27 05:53:28;;;;;;;10.47;3.67;;;6.90;99.90;;;;;;5122098;28;20448;-81
2021/03/27 05:56:06;;;;;;;9.70;2.93;;;7.00;99.90;;;;;;5124767;28;20182;-83
2021/03/27 05:58:43;;;;;;;7.00;3.30;;;7.00;99.90;;;;;;5123310;28;20409;-83
2021/03/27 06:01:36;;;;;;;8.03;3.50;;;7.10;99.90;;;;;;5119505;28;20457;-83
2021/03/27 06:04:40;;;;;;;10.30;3.80;;;6.80;99.90;;;;;;5114517;28;20477;-82
2021/03/27 06:07:43;;;;;;;11.50;2.93;;;6.80;99.90;;;;;;5104480;28;21199;-83
2021/03/27 06:10:34;;;;;;;4.50;2.87;;;6.80;99.90;;;;;;5122990;28;20428;-82
2021/03/27 06:13:21;;;;;;;3.70;2.70;;;6.80;99.90;;;;;;5123692;28;20418;-83
2021/03/27 06:16:15;;;;;;;3.43;2.70;;;7.00;99.90;;;;;;5128255;27;20428;-82
2021/03/27 06:18:55;;;;;;;5.93;3.07;;;7.20;99.90;;;;;;5113032;28;20436;-81
2021/03/27 06:21:34;;;;;;;4.80;2.80;;;7.00;99.90;;;;;;5123851;28;20429;-82
2021/03/27 06:24:24;;;;;;;4.20;2.90;;;7.00;99.90;;;;;;5122925;28;20448;-82
2021/03/27 06:27:03;;;;;;;8.60;3.13;;;7.10;99.90;;;;;;5121459;28;20537;-83
2021/03/27 06:30:07;;;;;;;7.90;3.47;;;7.10;99.90;;;;;;5121137;28;20438;-82
2021/03/27 06:32:59;;;;;;;5.90;2.90;;;7.10;99.90;;;;;;5121379;27;20445;-82
2021/03/27 06:36:01;;;;;;;9.20;3.37;;;6.90;99.90;;;;;;5123783;28;20409;-82
2021/03/27 06:38:45;;;;;;;7.13;2.90;;;6.80;99.90;;;;;;5083170;28;20429;-82
2021/03/27 06:41:41;;;;;;;6.20;3.10;;;7.00;99.90;;;;;;5116834;28;20449;-81
2021/03/27 06:44:16;;;;;;;9.87;3.47;;;7.00;99.90;;;;;;5120373;28;20422;-81
2021/03/27 06:47:24;;;;;;;4.77;3.53;;;7.10;99.90;;;;;;5119073;28;20737;-81
2021/03/27 06:49:53;;;;;;;6.60;3.50;;;7.00;99.90;;;;;;5103149;28;20501;-81
2021/03/27 06:52:43;;;;;;;11.00;3.20;;;7.10;99.90;;;;;;5119150;28;20437;-80
2021/03/27 06:55:28;;;;;;;10.07;3.60;;;7.40;99.90;;;;;;5121440;28;21161;-83
2021/03/27 06:58:24;;;;;;;8.13;3.60;;;7.10;99.90;;;;;;5120011;28;20474;-81
2021/03/27 07:01:22;;;;;;;8.33;3.47;;;7.20;99.90;;;;;;5109348;28;20491;-80
2021/03/27 07:04:25;;;;;;;6.43;3.30;;;7.40;99.90;;;;;;5114691;28;20420;-82
2021/03/27 07:07:09;;;;;;;10.03;3.43;;;7.60;99.90;;;;;;5119502;28;20457;-83
2021/03/27 07:09:52;;;;;;;7.00;3.67;;;7.30;99.90;;;;;;5119440;28;20405;-82
2021/03/27 07:13:00;;;;;;;10.33;4.27;;;7.30;99.90;;;;;;5108760;28;20449;-81
2021/03/27 07:16:12;;;;;;;8.80;3.20;;;7.50;99.90;;;;;;5109447;28;20432;-82
2021/03/27 07:19:35;;;;;;;11.13;3.43;;;7.40;99.90;;;;;;5119121;28;20477;-82
2021/03/27 07:22:26;;;;;;;9.23;3.23;;;7.70;99.90;;;;;;5080699;28;20493;-83
2021/03/27 07:25:16;;;;;;;8.30;3.50;;;7.20;99.90;;;;;;5062652;28;20427;-82
2021/03/27 07:28:22;;;;;;;8.37;3.27;;;7.30;99.90;;;;;;5116064;28;20516;-83
2021/03/27 07:31:07;;;;;;;5.47;2.70;;;7.20;99.90;;;;;;5121857;27;20452;-83
2021/03/27 07:33:55;;;;;;;6.60;3.00;;;7.20;99.90;;;;;;5127531;27;21082;-81
2021/03/27 07:36:26;;;;;;;6.30;2.77;;;7.30;99.90;;;;;;5129086;27;20448;-82
2021/03/27 07:39:23;;;;;;;5.13;2.77;;;7.40;99.90;;;;;;5123626;28;20433;-81
2021/03/27 07:42:26;;;;;;;4.30;1.90;;;7.40;99.90;;;;;;5120405;28;20426;-81
2021/03/27 07:45:26;;;;;;;2.57;1.10;;;7.50;99.90;;;;;;5117270;28;20875;-83
2021/03/27 07:48:14;;;;;;;5.03;1.30;;;7.50;99.90;;;;;;5102781;28;21278;-82
2021/03/27 07:50:49;;;;;;;4.63;1.50;;;7.00;99.90;;;;;;5114088;28;20414;-82
2021/03/27 07:53:32;;;;;;;4.90;1.47;;;6.70;99.90;;;;;;5103725;28;20505;-83
2021/03/27 07:56:16;;;;;;;3.80;1.80;;;6.70;99.90;;;;;;5111801;28;20431;-82
2021/03/27 07:59:20;;;;;;;3.07;1.80;;;6.50;99.90;;;;;;5103997;28;20869;-82
2021/03/27 08:02:16;;;;;;;3.50;1.50;;;6.50;99.90;;;;;;5114441;28;20456;-82
2021/03/27 08:05:15;;;;;;;2.93;1.47;;;6.60;99.90;;;;;;5128136;28;20473;-81
2021/03/27 08:07:41;;;;;;;2.37;1.60;;;6.20;99.90;;;;;;5122972;28;20412;-82
2021/03/27 08:10:31;;;;;;;2.97;1.50;;;6.50;99.90;;;;;;5123940;28;20409;-81
2021/03/27 08:13:06;;;;;;;3.00;1.53;;;6.40;99.90;;;;;;5110146;28;20244;-80
2021/03/27 08:16:09;;;;;;;4.00;1.47;;;6.30;99.90;;;;;;5117823;28;20433;-81
2021/03/27 08:19:15;;;;;;;6.00;1.93;;;6.30;99.90;;;;;;5131896;27;20413;-81
2021/03/27 08:22:19;;;;;;;7.57;2.77;;;6.20;99.90;;;;;;5116428;28;20704;-82
2021/03/27 08:25:10;;;;;;;5.03;1.87;;;6.10;99.90;;;;;;5107909;28;20448;-81
2021/03/27 08:27:38;;;;;;;3.90;1.70;;;6.00;99.90;;;;;;5110513;28;20421;-82
2021/03/27 08:30:42;;;;;;;6.07;1.90;;;5.80;99.90;;;;;;5126133;28;21046;-83
2021/03/27 08:33:15;;;;;;;3.93;2.70;;;5.70;99.90;;;;;;5128908;27;20468;-82
2021/03/27 08:36:06;;;;;;;3.80;1.53;;;5.80;99.90;;;;;;5135764;27;20617;-81
2021/03/27 08:38:43;;;;;;;2.73;1.60;;;5.60;99.90;;;;;;5128029;27;20428;-82
2021/03/27 08:41:22;;;;;;;6.33;2.63;;;5.70;99.90;;;;;;5113829;28;20433;-81
2021/03/27 08:44:25;;;;;;;2.23;1.60;;;6.00;99.90;;;;;;5108536;28;20410;-80
2021/03/27 08:47:17;;;;;;;5.47;1.90;;;5.60;99.90;;;;;;5102793;27;20528;-80
2021/03/27 08:49:56;;;;;;;3.17;1.87;;;5.70;99.90;;;;;;5107467;27;20424;-81
2021/03/27 08:52:59;;;;;;;3.33;2.13;;;5.80;99.90;;;;;;5127872;28;20573;-83
2021/03/27 08:55:43;;;;;;;3.63;1.73;;;5.50;99.90;;;;;;5125585;28;20428;-83
2021/03/27 08:58:17;;;;;;;6.27;2.33;;;5.80;99.90;;;;;;5108866;28;20792;-82
2021/03/27 09:01:21;;;;;;;3.47;2.30;;;5.70;99.90;;;;;;5124628;28;20843;-83
2021/03/27 09:03:46;;;;;;;4.33;2.60;;;6.00;99.90;;;;;;5112336;28;20770;-82
2021/03/27 09:06:50;;;;;;;3.10;2.40;;;6.10;99.90;;;;;;5125467;28;20528;-82
2021/03/27 09:09:30;;;;;;;4.43;2.60;;;6.00;99.90;;;;;;5097541;27;20720;-81
2021/03/27 09:12:14;;;;;;;2.87;2.10;;;6.50;99.90;;;;;;5114725;28;20436;-81
2021/03/27 09:14:49;;;;;;;4.90;2.67;;;6.60;99.90;;;;;;5128308;28;21129;-82
2021/03/27 09:17:38;;;;;;;6.40;2.90;;;6.60;99.90;;;;;;5099773;28;20433;-83
2021/03/27 09:20:22;;;;;;;5.70;2.77;;;6.80;99.90;;;;;;5112604;28;20418;-81
2021/03/27 09:23:22;;;;;;;5.07;2.40;;;6.70;99.90;;;;;;5124979;28;21042;-83
2021/03/27 09:26:12;;;;;;;6.30;4.03;;;7.00;99.90;;;;;;5125820;28;20520;-81
2021/03/27 09:28:59;;;;;;;4.43;2.97;;;7.00;99.90;;;;;;5125771;28;20422;-84
2021/03/27 09:31:55;;;;;;;5.07;3.40;;;7.10;99.90;;;;;;5106727;28;20450;-83
2021/03/27 09:34:50;;;;;;;5.30;3.20;;;7.70;99.90;;;;;;5125698;27;20441;-81
2021/03/27 09:38:03;;;;;;;7.70;3.10;;;8.00;99.90;;;;;;5125967;27;20416;-82
2021/03/27 09:41:08;;;;;;;4.47;3.00;;;8.80;99.90;;;;;;5112317;28;20421;-83
2021/03/27 09:44:02;;;;;;;8.60;3.40;;;9.00;99.90;;;;;;5102729;28;20781;-82
2021/03/27 09:46:46;;;;;;;4.67;2.70;;;9.10;99.90;;;;;;5107657;28;20568;-81
2021/03/27 09:49:37;;;;;;;9.63;3.17;;;9.20;99.90;;;;;;5131914;27;20405;-82
2021/03/27 09:52:23;;;;;;;5.87;2.40;;;8.80;99.90;;;;;;5122152;28;20465;-83
2021/03/27 09:55:14;;;;;;;6.33;2.30;;;9.00;99.90;;;;;;5123715;28;20437;-83
2021/03/27 09:58:01;;;;;;;3.70;2.87;;;8.90;99.90;;;;;;5121509;27;20429;-81
2021/03/27 10:00:50;;;;;;;7.27;3.00;;;8.60;99.90;;;;;;5107368;28;20516;-82
2021/03/27 10:03:21;;;;;;;5.33;2.57;;;8.60;99.90;;;;;;5125410;27;20425;-83
2021/03/27 10:05:53;;;;;;;8.47;1.83;;;8.80;99.90;;;;;;5113489;27;20453;-83
2021/03/27 10:08:19;;;;;;;2.53;1.37;;;8.60;99.90;;;;;;5127221;27;20422;-83
2021/03/27 10:11:04;;;;;;;2.33;1.70;;;8.40;99.90;;;;;;5122310;27;20905;-82
2021/03/27 10:14:10;;;;;;;1.93;1.70;;;8.10;99.90;;;;;;5121005;27;20828;-83
2021/03/27 10:16:44;;;;;;;2.73;1.30;;;7.60;99.90;;;;;;5121690;27;20464;-81
2021/03/27 10:19:13;;;;;;;2.37;1.37;;;7.70;99.90;;;;;;5106168;27;20849;-81
2021/03/27 10:21:45;;;;;;;2.80;1.80;;;7.50;99.90;;;;;;5124900;27;20440;-83
2021/03/27 10:24:30;;;;;;;1.50;1.10;;;7.10;99.90;;;;;;5124217;28;20416;-82
2021/03/27 10:27:02;;;;;;;5.77;1.70;;;7.10;99.90;;;;;;5105996;28;20449;-82
2021/03/27 10:30:01;;;;;;;2.60;1.70;;;7.10;99.90;;;;;;5122774;28;20436;-80
2021/03/27 10:32:30;;;;;;;3.50;1.77;;;7.20;99.90;;;;;;5104502;27;20559;-83
2021/03/27 10:35:34;;;;;;;3.40;1.30;;;7.10;99.90;;;;;;5130133;27;20466;-82
2021/03/27 10:38:27;;;;;;;3.37;1.63;;;7.10;99.90;;;;;;5126825;27;20554;-82
2021/03/27 10:40:57;;;;;;;3.00;2.03;;;6.90;99.90;;;;;;5121005;28;20469;-81
2021/03/27 10:43:52;;;;;;;2.30;1.73;;;6.90;99.90;;;;;;5123101;28;20416;-82
2021/03/27 10:46:40;;;;;;;2.83;2.27;;;6.90;99.90;;;;;;5123146;28;20873;-81
2021/03/27 10:49:12;;;;;;;3.40;2.40;;;6.80;99.90;;;;;;5113923;28;20457;-82
2021/03/27 10:52:16;;;;;;;3.17;2.63;;;6.50;99.90;;;;;;5137060;27;20481;-83
2021/03/27 10:55:01;;;;;;;4.50;2.77;;;6.50;99.90;;;;;;5099482;27;20426;-81
2021/03/27 10:57:51;;;;;;;2.97;1.97;;;6.60;99.90;;;;;;5103673;28;20426;-81
2021/03/27 11:00:35;;;;;;;7.47;2.23;;;6.70;99.90;;;;;;5112900;28;20679;-81
2021/03/27 11:03:32;;;;;;;4.80;3.80;;;7.20;99.90;;;;;;5114151;27;20436;-84
2021/03/27 11:06:01;;;;;;;5.87;2.13;;;7.70;99.90;;;;;;5127024;27;20464;-82
2021/03/27 11:09:01;;;;;;;3.80;2.70;;;7.80;99.90;;;;;;5130335;27;20414;-83
2021/03/27 11:11:57;;;;;;;7.40;2.03;;;7.70;99.90;;;;;;5125161;28;20454;-83
2021/03/27 11:14:54;;;;;;;2.73;2.50;;;7.80;99.90;;;;;;5123180;28;20418;-81
2021/03/27 11:17:57;;;;;;;6.33;2.33;;;7.60;99.90;;;;;;5105468;28;20891;-83
2021/03/27 11:20:50;;;;;;;3.03;2.60;;;7.40;99.90;;;;;;5130254;27;20444;-82
2021/03/27 11:23:47;;;;;;;7.60;2.70;;;7.80;99.90;;;;;;5098483;28;20509;-83
2021/03/27 11:26:37;;;;;;;3.87;3.03;;;8.20;99.90;;;;;;5116569;28;20516;-83
2021/03/27 11:29:27;;;;;;;7.17;3.10;;;8.40;99.90;;;;;;5119320;28;20906;-84
2021/03/27 11:32:00;;;;;;;6.80;3.27;;;8.90;99.90;;;;;;5124138;28;20434;-83
2021/03/27 11:34:55;;;;;;;5.70;2.97;;;9.50;99.90;;;;;;5114328;28;20425;-83
2021/03/27 11:37:58;;;;;;;9.17;2.87;;;9.90;99.90;;;;;;5118713;27;20413;-81
2021/03/27 11:40:47;;;;;;;7.73;2.80;;;9.50;99.90;;;;;;5081262;28;20410;-83
2021/03/27 11:43:26;;;;;;;4.27;3.00;;;9.40;99.90;;;;;;5103756;27;21031;-83
2021/03/27 11:46:19;;;;;;;6.40;3.70;;;9.20;99.90;;;;;;5116175;28;20453;-82
2021/03/27 11:48:47;;;;;;;6.07;3.73;;;8.90;99.90;;;;;;5129365;27;20449;-81
2021/03/27 11:51:19;;;;;;;8.00;3.53;;;9.30;99.90;;;;;;5128277;28;20989;-83
2021/03/27 11:54:11;;;;;;;8.20;3.90;;;9.90;99.90;;;;;;5125442;28;20424;-81
2021/03/27 11:56:41;;;;;;;7.60;3.27;;;10.20;99.90;;;;;;5124577;28;20414;-83
2021/03/27 12:02:17;;;;;;;5.07;3.57;;;11.00;99.90;;;;;;5121264;28;21108;-83
2021/03/27 12:04:53;;;;;;;4.60;3.17;;;11.20;99.90;;;;;;5119341;28;20494;-83
2021/03/27 12:07:24;;;;;;;3.90;3.13;;;11.00;99.90;;;;;;5127738;28;20456;-83
2021/03/27 12:10:13;;;;;;;4.83;3.07;;;10.70;99.90;;;;;;5120985;28;20496;-81
2021/03/27 12:13:02;;;;;;;4.77;3.47;;;10.50;99.90;;;;;;5105180;28;20474;-82
2021/03/27 12:15:55;;;;;;;6.97;3.20;;;10.50;99.90;;;;;;5113181;28;20456;-83
2021/03/27 12:18:42;;;;;;;4.50;3.17;;;10.80;99.90;;;;;;5117739;28;20829;-82
2021/03/27 12:21:31;;;;;;;6.10;3.33;;;11.20;99.90;;;;;;5123496;28;20431;-83
2021/03/27 12:24:05;;;;;;;6.90;2.80;;;11.30;98.80;;;;;;5123191;28;20421;-83
2021/03/27 12:26:55;;;;;;;3.13;2.20;;;11.50;97.80;;;;;;5116399;28;20974;-82
2021/03/27 12:29:24;;;;;;;4.47;2.70;;;11.70;98.60;;;;;;5128856;28;20446;-81
2021/03/27 12:32:14;;;;;;;4.30;2.60;;;12.00;97.40;;;;;;5120042;28;20437;-83
2021/03/27 12:34:55;;;;;;;2.73;2.20;;;12.20;95.00;;;;;;5111180;28;20864;-83
2021/03/27 12:37:34;;;;;;;3.10;2.33;;;12.20;94.10;;;;;;5125725;28;20444;-82
2021/03/27 12:40:20;;;;;;;6.43;3.17;;;12.20;95.00;;;;;;5120840;28;20413;-83
2021/03/27 12:42:56;;;;;;;3.23;2.10;;;12.10;94.40;;;;;;5104971;28;20464;-82
2021/03/27 12:45:29;;;;;;;2.73;2.40;;;11.70;93.00;;;;;;5102682;28;20532;-81
2021/03/27 12:48:20;;;;;;;8.60;2.60;;;11.30;93.00;;;;;;5092901;28;20405;-83
2021/03/27 12:51:24;;;;;;;2.60;2.40;;;11.30;93.50;;;;;;5132408;28;20452;-82
2021/03/27 12:54:21;;;;;;;4.73;2.33;;;11.60;93.90;;;;;;5068475;28;21095;-83
2021/03/27 12:57:01;;;;;;;4.27;2.70;;;11.50;94.00;;;;;;5083459;28;20426;-82
2021/03/27 12:59:55;;;;;;;5.50;2.97;;;11.40;93.60;;;;;;5100217;28;20461;-83
2021/03/27 13:02:44;;;;;;;4.73;2.60;;;11.10;92.70;;;;;;5119409;27;21238;-83
2021/03/27 13:05:31;;;;;;;6.60;2.93;;;10.80;93.80;;;;;;5126869;27;20439;-82
2021/03/27 13:08:35;;;;;;;7.50;3.30;;;10.50;95.20;;;;;;5130318;27;20448;-82
2021/03/27 13:11:29;;;;;;;3.73;2.20;;;9.90;96.90;;;;;;5124957;28;20769;-81
2021/03/27 13:14:14;;;;;;;4.10;2.80;;;10.00;97.70;;;;;;5089034;28;20497;-82
2021/03/27 13:16:47;;;;;;;2.53;2.20;;;10.30;99.90;;;;;;5123527;28;20425;-83
2021/03/27 13:19:35;;;;;;;4.17;3.17;;;10.80;99.90;;;;;;5106733;28;20500;-83
2021/03/27 13:22:19;;;;;;;3.97;2.47;;;11.00;97.40;;;;;;5109786;28;20479;-82
2021/03/27 13:24:57;;;;;;;6.50;2.33;;;11.30;98.70;;;;;;5123204;28;20413;-82
2021/03/27 13:27:39;;;;;;;4.00;2.07;;;11.60;97.00;;;;;;5123853;28;20432;-83
2021/03/27 13:30:20;;;;;;;3.07;1.97;;;11.90;94.50;;;;;;5119193;28;20442;-83
2021/03/27 13:33:12;;;;;;;2.40;1.50;;;12.20;94.80;;;;;;5121402;28;20438;-81
2021/03/27 13:35:50;;;;;;;4.10;1.60;;;12.30;91.40;;;;;;5111492;27;20452;-83
2021/03/27 13:39:02;;;;;;;4.27;1.90;;;12.30;89.60;;;;;;5128650;27;20782;-82
2021/03/27 13:41:38;;;;;;;4.20;1.60;;;12.00;88.00;;;;;;5121884;28;20454;-81
2021/03/27 13:44:03;;;;;;;5.23;1.67;;;11.90;87.60;;;;;;5121760;28;20436;-83
2021/03/27 13:46:41;;;;;;;2.30;1.20;;;12.00;88.90;;;;;;5122367;28;20453;-82
2021/03/27 13:49:22;;;;;;;3.77;1.30;;;12.10;88.60;;;;;;5116973;28;20261;-82
2021/03/27 13:51:58;;;;;;;2.37;1.10;;;11.90;84.40;;;;;;5130806;27;20436;-83
2021/03/27 13:54:33;;;;;;;6.73;1.60;;;11.60;85.30;;;;;;5104439;28;20428;-83
2021/03/27 13:57:24;;;;;;;3.97;1.20;;;11.50;82.50;;;;;;5123586;28;20413;-84
2021/03/27 14:00:11;;;;;;;3.13;1.10;;;11.70;82.80;;;;;;5123254;28;20430;-83
2021/03/27 14:02:39;;;;;;;5.60;1.40;;;11.60;82.40;;;;;;5121520;28;20501;-84
2021/03/27 14:05:25;;;;;;;3.10;1.30;;;11.80;82.90;;;;;;5118228;27;20468;-83
2021/03/27 14:08:35;;;;;;;2.40;1.70;;;11.70;80.80;;;;;;5122811;28;20424;-83
2021/03/27 14:11:03;;;;;;;3.50;1.73;;;11.40;81.40;;;;;;5111863;28;20444;-84
2021/03/27 14:13:45;;;;;;;4.90;1.60;;;11.60;81.90;;;;;;5106575;28;20421;-84
2021/03/27 14:16:31;;;;;;;2.37;1.30;;;11.70;82.30;;;;;;5121500;28;20413;-82
2021/03/27 14:19:00;;;;;;;5.30;2.07;;;12.00;84.20;;;;;;5122899;27;20421;-84
2021/03/27 14:21:28;;;;;;;3.63;1.20;;;12.10;83.30;;;;;;5127484;27;20490;-82
2021/03/27 14:24:20;;;;;;;2.07;0.90;;;12.20;80.90;;;;;;5135947;27;20424;-85
2021/03/27 14:27:13;;;;;;;2.07;0.80;;;12.10;77.60;;;;;;5092713;28;20461;-84
2021/03/27 14:29:46;;;;;;;3.97;1.20;;;12.00;77.40;;;;;;5119486;28;20448;-78
2021/03/27 14:32:34;;;;;;;2.63;0.97;;;12.00;78.50;;;;;;5097879;28;21179;-81